createdAt,value
2018-05-07T00:01:16.014Z,13.27
2018-05-07T00:03:42.793Z,10.23
2018-05-07T00:06:10.407Z,11.90
2018-05-07T00:08:37.197Z,12.30
2018-05-07T00:11:04.060Z,9.67
2018-05-07T00:13:30.989Z,10.70
2018-05-07T00:15:58.600Z,10.60
2018-05-07T00:18:25.394Z,11.50
2018-05-07T00:20:53.046Z,13.37
2018-05-07T00:23:19.816Z,15.27
2018-05-07T00:25:46.634Z,10.00
2018-05-07T00:28:13.473Z,11.20
2018-05-07T00:30:41.047Z,13.00
2018-05-07T00:33:07.811Z,12.47
2018-05-07T00:35:35.376Z,11.70
2018-05-07T00:38:02.904Z,11.07
2018-05-07T00:40:30.368Z,14.33
2018-05-07T00:42:57.259Z,12.93
2018-05-07T00:45:24.089Z,11.03
2018-05-07T00:47:50.891Z,11.67
2018-05-07T00:50:17.822Z,10.43
2018-05-07T00:52:44.631Z,11.43
2018-05-07T00:55:21.592Z,14.87
2018-05-07T00:57:49.078Z,12.27
2018-05-07T01:00:16.073Z,14.83
2018-05-07T01:02:42.886Z,10.93
2018-05-07T01:05:09.737Z,11.30
2018-05-07T01:07:36.643Z,13.43
2018-05-07T01:10:04.156Z,12.90
2018-05-07T01:12:30.968Z,10.43
2018-05-07T01:14:57.794Z,12.50
2018-05-07T01:17:24.544Z,13.00
2018-05-07T01:19:51.373Z,10.77
2018-05-07T01:22:18.887Z,10.30
2018-05-07T01:24:45.695Z,11.13
2018-05-07T01:27:12.518Z,11.63
2018-05-07T01:29:40.123Z,12.97
2018-05-07T01:32:06.937Z,14.23
2018-05-07T01:34:34.513Z,11.47
2018-05-07T01:37:01.304Z,11.30
2018-05-07T01:39:28.129Z,12.87
2018-05-07T01:41:54.924Z,10.60
2018-05-07T01:44:22.560Z,12.10
2018-05-07T01:46:49.540Z,10.47
2018-05-07T01:49:17.175Z,10.23
2018-05-07T01:51:43.925Z,12.33
2018-05-07T01:54:10.693Z,11.90
2018-05-07T01:56:37.588Z,13.07
2018-05-07T01:59:04.393Z,10.03
2018-05-07T02:01:31.160Z,10.30
2018-05-07T02:03:57.979Z,10.97
2018-05-07T02:06:24.787Z,13.00
2018-05-07T02:08:52.337Z,9.90
2018-05-07T02:11:19.202Z,11.23
2018-05-07T02:13:46.840Z,12.53
2018-05-07T02:16:13.764Z,12.77
2018-05-07T02:18:40.585Z,11.43
2018-05-07T02:21:07.427Z,15.67
2018-05-07T02:23:34.295Z,12.03
2018-05-07T02:26:02.680Z,15.93
2018-05-07T02:28:29.521Z,14.13
2018-05-07T02:30:56.320Z,13.37
2018-05-07T02:33:23.808Z,13.57
2018-05-07T02:35:50.669Z,13.80
2018-05-07T02:38:17.492Z,16.03
2018-05-07T02:40:44.285Z,17.37
2018-05-07T02:43:11.060Z,16.37
2018-05-07T02:45:38.554Z,20.13
2018-05-07T02:48:05.372Z,19.67
2018-05-07T02:50:32.915Z,23.50
2018-05-07T02:53:00.526Z,16.17
2018-05-07T02:55:27.422Z,19.80
2018-05-07T02:57:54.979Z,21.03
2018-05-07T03:00:22.607Z,19.60
2018-05-07T03:02:49.493Z,19.67
2018-05-07T03:05:17.073Z,18.50
2018-05-07T03:07:44.600Z,19.83
2018-05-07T03:10:11.388Z,17.93
2018-05-07T03:12:38.235Z,18.33
2018-05-07T03:15:05.096Z,16.87
2018-05-07T03:17:31.942Z,17.77
2018-05-07T03:19:58.681Z,22.73
2018-05-07T03:22:25.527Z,20.67
2018-05-07T03:24:52.375Z,18.37
2018-05-07T03:27:19.252Z,17.33
2018-05-07T03:29:46.118Z,19.37
2018-05-07T03:32:13.679Z,20.73
2018-05-07T03:34:41.300Z,20.13
2018-05-07T03:37:08.129Z,22.10
2018-05-07T03:39:34.964Z,23.10
2018-05-07T03:42:01.738Z,28.37
2018-05-07T03:44:28.629Z,25.63
2018-05-07T03:46:56.199Z,24.00
2018-05-07T03:49:23.087Z,29.97
2018-05-07T03:51:49.905Z,23.37
2018-05-07T03:54:16.693Z,23.23
2018-05-07T03:56:43.572Z,25.10
2018-05-07T03:59:11.155Z,23.90
2018-05-07T04:01:38.032Z,26.13
2018-05-07T04:04:04.844Z,33.07
2018-05-07T04:06:31.649Z,29.30
2018-05-07T04:08:58.546Z,27.57
2018-05-07T04:11:25.417Z,30.37
2018-05-07T04:13:52.200Z,27.60
2018-05-07T04:16:31.752Z,30.90
2018-05-07T04:19:10.676Z,30.97
2018-05-07T04:21:37.555Z,28.37
2018-05-07T04:24:06.078Z,32.80
2018-05-07T04:26:32.885Z,33.67
2018-05-07T04:28:59.772Z,28.97
2018-05-07T04:31:27.374Z,41.30
2018-05-07T04:33:54.176Z,32.10
2018-05-07T04:36:21.009Z,32.10
2018-05-07T04:38:47.787Z,34.57
2018-05-07T04:41:15.308Z,30.10
2018-05-07T04:43:42.112Z,35.37
2018-05-07T04:46:09.008Z,33.27
2018-05-07T04:48:35.813Z,28.60
2018-05-07T04:51:03.830Z,33.87
2018-05-07T04:53:30.614Z,27.17
2018-05-07T04:55:57.425Z,30.10
2018-05-07T04:58:25.048Z,23.13
2018-05-07T05:00:51.825Z,26.03
2018-05-07T05:03:18.706Z,28.23
2018-05-07T05:05:45.476Z,30.83
2018-05-07T05:08:12.231Z,34.23
2018-05-07T05:10:39.047Z,31.70
2018-05-07T05:13:05.899Z,31.93
2018-05-07T05:15:32.735Z,30.70
2018-05-07T05:17:59.527Z,36.73
2018-05-07T05:20:26.479Z,31.30
2018-05-07T05:22:53.344Z,37.20
2018-05-07T05:25:21.163Z,36.30
2018-05-07T05:27:47.948Z,32.17
2018-05-07T05:30:15.580Z,33.90
2018-05-07T05:32:42.334Z,35.23
2018-05-07T05:35:09.264Z,29.77
2018-05-07T05:37:36.115Z,28.43
2018-05-07T05:40:02.962Z,33.50
2018-05-07T05:42:29.699Z,29.47
2018-05-07T05:44:56.583Z,33.60
2018-05-07T05:47:24.077Z,32.47
2018-05-07T05:49:50.987Z,25.93
2018-05-07T05:52:17.807Z,30.43
2018-05-07T05:54:44.647Z,29.97
2018-05-07T05:57:11.577Z,27.70
2018-05-07T05:59:38.372Z,27.43
2018-05-07T06:02:05.941Z,30.23
2018-05-07T06:04:33.527Z,30.83
2018-05-07T06:07:00.262Z,32.50
2018-05-07T06:09:27.048Z,28.83
2018-05-07T06:11:53.875Z,33.67
2018-05-07T06:14:25.913Z,29.73
2018-05-07T06:16:52.711Z,30.97
2018-05-07T06:19:19.515Z,28.40
2018-05-07T06:21:46.346Z,29.00
2018-05-07T06:24:13.147Z,28.73
2018-05-07T06:26:39.975Z,23.30
2018-05-07T06:29:06.729Z,29.33
2018-05-07T06:31:33.629Z,27.93
2018-05-07T06:34:00.394Z,28.10
2018-05-07T06:36:27.161Z,32.20
2018-05-07T06:38:54.047Z,27.37
2018-05-07T06:41:21.008Z,24.90
2018-05-07T06:43:47.895Z,27.10
2018-05-07T06:46:15.468Z,24.13
2018-05-07T06:48:42.269Z,31.00
2018-05-07T06:51:09.200Z,36.50
2018-05-07T06:53:36.008Z,28.13
2018-05-07T06:56:04.332Z,31.67
2018-05-07T06:58:31.236Z,31.73
2018-05-07T07:00:58.775Z,31.63
2018-05-07T07:03:25.527Z,30.73
2018-05-07T07:05:52.277Z,26.90
2018-05-07T07:08:19.406Z,33.73
2018-05-07T07:10:46.872Z,30.00
2018-05-07T07:13:13.680Z,33.93
2018-05-07T07:15:40.535Z,37.57
2018-05-07T07:18:07.314Z,37.27
2018-05-07T07:20:34.183Z,35.00
2018-05-07T07:23:01.665Z,35.13
2018-05-07T07:25:28.517Z,28.57
2018-05-07T07:27:55.326Z,28.40
2018-05-07T07:30:22.307Z,30.13
2018-05-07T07:32:49.191Z,31.90
2018-05-07T07:35:15.985Z,23.77
2018-05-07T07:37:42.876Z,24.83
2018-05-07T07:40:09.803Z,20.93
2018-05-07T07:42:36.670Z,19.73
2018-05-07T07:45:03.582Z,20.93
2018-05-07T07:47:30.424Z,16.97
2018-05-07T07:49:57.125Z,16.07
2018-05-07T07:52:23.972Z,20.07
2018-05-07T07:54:51.527Z,18.90
2018-05-07T07:57:18.407Z,18.97
2018-05-07T07:59:45.206Z,20.13
2018-05-07T08:02:12.124Z,16.50
2018-05-07T08:04:38.935Z,17.87
2018-05-07T08:07:06.475Z,16.77
2018-05-07T08:09:34.000Z,17.43
2018-05-07T08:12:00.842Z,20.20
2018-05-07T08:17:25.116Z,18.47
2018-05-07T08:19:51.839Z,16.63
2018-05-07T08:22:19.376Z,19.13
2018-05-07T08:24:46.193Z,15.83
2018-05-07T08:27:13.098Z,20.20
2018-05-07T08:29:40.635Z,20.83
2018-05-07T08:32:07.489Z,21.93
2018-05-07T08:34:35.122Z,21.33
2018-05-07T08:37:01.975Z,18.93
2018-05-07T08:39:28.834Z,22.00
2018-05-07T08:41:55.565Z,17.67
2018-05-07T08:44:37.242Z,16.90
2018-05-07T08:47:04.118Z,21.50
2018-05-07T08:49:31.716Z,18.60
2018-05-07T08:51:58.541Z,17.47
2018-05-07T08:54:26.151Z,17.97
2018-05-07T08:56:52.952Z,16.50
2018-05-07T08:59:20.547Z,13.23
2018-05-07T09:01:47.424Z,16.33
2018-05-07T09:04:14.179Z,18.00
2018-05-07T09:06:41.050Z,13.37
2018-05-07T09:09:08.563Z,16.30
2018-05-07T09:11:35.424Z,15.90
2018-05-07T09:14:02.246Z,12.30
2018-05-07T09:16:29.098Z,14.53
2018-05-07T09:18:55.885Z,18.23
2018-05-07T09:21:23.399Z,15.10
2018-05-07T09:23:50.222Z,12.87
2018-05-07T09:26:16.988Z,21.00
2018-05-07T09:28:43.749Z,15.87
2018-05-07T09:31:10.632Z,14.87
2018-05-07T09:33:37.622Z,12.33
2018-05-07T09:36:05.187Z,19.13
2018-05-07T09:38:32.243Z,14.47
2018-05-07T09:40:59.000Z,16.07
2018-05-07T09:43:26.047Z,13.97
2018-05-07T09:45:52.974Z,15.57
2018-05-07T09:48:20.083Z,10.90
2018-05-07T09:50:47.071Z,14.27
2018-05-07T09:53:13.918Z,15.37
2018-05-07T09:55:40.758Z,18.87
2018-05-07T09:58:07.710Z,16.43
2018-05-07T10:00:37.628Z,13.50
2018-05-07T10:03:04.469Z,14.60
2018-05-07T10:05:31.378Z,12.50
2018-05-07T10:07:58.369Z,9.57
2018-05-07T10:10:25.517Z,16.60
2018-05-07T10:12:52.364Z,17.37
2018-05-07T10:15:34.835Z,13.50
2018-05-07T10:18:01.831Z,13.33
2018-05-07T10:20:28.940Z,10.60
2018-05-07T10:22:55.919Z,12.87
2018-05-07T10:25:23.079Z,13.17
2018-05-07T10:27:50.123Z,11.97
2018-05-07T10:30:16.956Z,10.80
2018-05-07T10:32:43.814Z,15.27
2018-05-07T10:35:10.955Z,13.17
2018-05-07T10:37:38.023Z,12.87
2018-05-07T10:40:04.971Z,18.50
2018-05-07T10:42:31.911Z,12.17
2018-05-07T10:44:58.753Z,13.27
2018-05-07T10:47:25.703Z,12.83
2018-05-07T10:49:52.648Z,14.73
2018-05-07T10:52:19.597Z,12.53
2018-05-07T10:54:46.642Z,10.57
2018-05-07T10:57:13.702Z,8.50
2018-05-07T10:59:40.754Z,8.00
2018-05-07T11:02:07.801Z,7.87
2018-05-07T11:04:34.493Z,11.73
2018-05-07T11:07:01.483Z,9.17
2018-05-07T11:09:28.544Z,9.07
2018-05-07T11:11:55.583Z,7.83
2018-05-07T11:14:35.749Z,8.13
2018-05-07T11:17:02.581Z,10.30
2018-05-07T11:19:29.744Z,10.27
2018-05-07T11:21:56.573Z,9.80
2018-05-07T11:24:23.529Z,10.27
2018-05-07T11:26:50.582Z,8.83
2018-05-07T11:29:17.522Z,8.90
2018-05-07T11:31:44.473Z,12.37
2018-05-07T11:34:11.417Z,8.37
2018-05-07T11:36:38.376Z,8.27
2018-05-07T11:39:05.456Z,8.30
2018-05-07T11:41:32.467Z,7.17
2018-05-07T11:43:59.337Z,8.87
2018-05-07T11:46:27.078Z,10.40
2018-05-07T11:48:53.925Z,14.93
2018-05-07T11:51:20.877Z,10.20
2018-05-07T11:53:47.926Z,10.17
2018-05-07T11:56:14.865Z,8.03
2018-05-07T11:58:41.810Z,9.17
2018-05-07T12:01:08.872Z,9.83
2018-05-07T12:03:35.909Z,7.87
2018-05-07T12:06:04.092Z,7.43
2018-05-07T12:08:31.146Z,6.10
2018-05-07T12:10:58.188Z,5.20
2018-05-07T12:13:25.235Z,5.50
2018-05-07T12:15:59.922Z,5.17
2018-05-07T12:18:26.911Z,6.23
2018-05-07T12:20:53.963Z,5.60
2018-05-07T12:23:20.967Z,5.53
2018-05-07T12:25:48.685Z,5.87
2018-05-07T12:28:15.531Z,6.60
2018-05-07T12:30:42.364Z,5.20
2018-05-07T12:33:09.418Z,6.60
2018-05-07T12:35:36.366Z,5.17
2018-05-07T12:38:03.186Z,5.30
2018-05-07T12:40:31.291Z,5.30
2018-05-07T12:42:58.230Z,4.87
2018-05-07T12:45:25.182Z,5.47
2018-05-07T12:47:52.128Z,4.57
2018-05-07T12:50:19.190Z,5.80
2018-05-07T12:52:46.274Z,6.00
2018-05-07T12:55:13.273Z,4.43
2018-05-07T12:57:40.221Z,4.40
2018-05-07T13:00:07.068Z,6.10
2018-05-07T13:02:34.014Z,4.47
2018-05-07T13:05:01.071Z,4.00
2018-05-07T13:07:27.836Z,4.53
2018-05-07T13:09:55.579Z,5.63
2018-05-07T13:12:22.519Z,6.53
2018-05-07T13:15:04.624Z,5.47
2018-05-07T13:17:32.281Z,6.27
2018-05-07T13:19:59.344Z,6.30
2018-05-07T13:22:26.431Z,17.23
2018-05-07T13:24:54.175Z,12.77
2018-05-07T13:27:21.099Z,10.67
2018-05-07T13:29:48.056Z,6.67
2018-05-07T13:32:15.104Z,8.13
2018-05-07T13:34:41.940Z,12.50
2018-05-07T13:49:40.238Z,8.40
2018-05-07T13:52:16.108Z,9.20
2018-05-07T13:57:55.748Z,7.43
2018-05-07T14:00:22.749Z,6.60
2018-05-07T14:02:49.576Z,7.83
2018-05-07T14:05:17.176Z,7.90
2018-05-07T14:07:44.009Z,6.00
2018-05-07T14:10:10.877Z,11.30
2018-05-07T14:12:37.747Z,8.33
2018-05-07T14:15:04.547Z,6.77
2018-05-07T14:17:31.365Z,9.00
2018-05-07T14:19:59.032Z,8.27
2018-05-07T14:22:25.963Z,7.00
2018-05-07T14:24:53.470Z,7.00
2018-05-07T14:27:20.334Z,6.27
2018-05-07T14:29:47.097Z,7.80
2018-05-07T14:32:13.935Z,7.27
2018-05-07T14:34:40.800Z,12.43
2018-05-07T14:37:08.453Z,9.97
2018-05-07T14:39:35.908Z,11.00
2018-05-07T14:42:02.725Z,8.00
2018-05-07T14:44:29.513Z,8.80
2018-05-07T14:46:56.466Z,8.60
2018-05-07T14:49:24.041Z,10.00
2018-05-07T14:51:50.875Z,9.10
2018-05-07T14:54:18.407Z,9.10
2018-05-07T14:56:45.235Z,6.03
2018-05-07T14:59:11.985Z,9.60
2018-05-07T15:01:38.729Z,6.17
2018-05-07T15:04:05.711Z,8.23
2018-05-07T15:06:33.370Z,7.77
2018-05-07T15:09:00.891Z,8.03
2018-05-07T15:11:27.667Z,7.40
2018-05-07T15:14:07.530Z,7.03
2018-05-07T15:16:35.198Z,6.83
2018-05-07T15:19:02.785Z,9.20
2018-05-07T15:21:29.596Z,7.33
2018-05-07T15:23:57.215Z,7.40
2018-05-07T15:26:24.028Z,7.77
2018-05-07T15:28:50.924Z,8.60
2018-05-07T15:31:17.756Z,9.40
2018-05-07T15:33:44.579Z,9.13
2018-05-07T15:36:11.404Z,8.83
2018-05-07T15:38:38.242Z,10.30
2018-05-07T15:41:05.397Z,13.17
2018-05-07T15:43:32.261Z,11.53
2018-05-07T15:45:59.125Z,10.43
2018-05-07T15:48:25.947Z,6.67
2018-05-07T15:50:52.716Z,12.40
2018-05-07T15:53:19.497Z,8.37
2018-05-07T15:55:47.323Z,9.30
2018-05-07T15:58:14.140Z,9.90
2018-05-07T16:00:41.020Z,8.77
2018-05-07T16:03:07.935Z,11.77
2018-05-07T16:05:34.573Z,9.57
2018-05-07T16:08:01.434Z,8.23
2018-05-07T16:10:28.286Z,10.13
2018-05-07T16:12:55.076Z,11.70
2018-05-07T16:18:27.788Z,13.30
2018-05-07T16:20:55.387Z,10.80
2018-05-07T16:23:22.456Z,10.10
2018-05-07T16:25:49.172Z,13.20
2018-05-07T16:28:16.150Z,11.83
2018-05-07T16:30:42.944Z,13.10
2018-05-07T16:33:10.487Z,16.13
2018-05-07T16:35:38.141Z,11.90
2018-05-07T16:38:04.957Z,13.80
2018-05-07T16:40:32.275Z,9.80
2018-05-07T16:42:59.190Z,9.97
2018-05-07T16:45:26.705Z,14.93
2018-05-07T16:47:53.554Z,12.27
2018-05-07T16:50:20.531Z,13.77
2018-05-07T16:52:47.293Z,11.67
2018-05-07T16:55:14.845Z,10.80
2018-05-07T16:57:42.385Z,13.67
2018-05-07T17:00:09.267Z,10.33
2018-05-07T17:02:36.816Z,8.87
2018-05-07T17:05:04.467Z,7.73
2018-05-07T17:07:31.320Z,12.53
2018-05-07T17:09:58.075Z,9.50
2018-05-07T17:12:25.673Z,11.27
2018-05-07T17:15:19.614Z,7.10
2018-05-07T17:17:47.171Z,9.83
2018-05-07T17:20:14.767Z,9.97
2018-05-07T17:22:41.568Z,8.13
2018-05-07T17:25:09.179Z,8.50
2018-05-07T17:27:35.995Z,9.03
2018-05-07T17:30:03.774Z,8.33
2018-05-07T17:32:30.608Z,9.13
2018-05-07T17:34:58.151Z,7.90
2018-05-07T17:37:24.982Z,7.17
2018-05-07T17:39:51.788Z,8.13
2018-05-07T17:42:18.527Z,11.80
2018-05-07T17:48:02.940Z,13.53
2018-05-07T17:50:30.345Z,7.97
2018-05-07T17:52:58.169Z,8.53
2018-05-07T17:55:25.015Z,8.37
2018-05-07T17:57:51.954Z,8.20
2018-05-07T18:00:19.054Z,8.30
2018-05-07T18:02:46.773Z,8.57
2018-05-07T18:05:13.838Z,7.43
2018-05-07T18:07:40.773Z,8.30
2018-05-07T18:10:07.614Z,9.13
2018-05-07T18:12:34.558Z,11.43
2018-05-07T18:15:30.618Z,8.90
2018-05-07T18:17:58.358Z,10.97
2018-05-07T18:20:25.253Z,8.60
2018-05-07T18:22:52.080Z,8.23
2018-05-07T18:25:20.336Z,9.83
2018-05-07T18:27:47.375Z,9.47
2018-05-07T18:30:14.433Z,7.90
2018-05-07T18:32:42.090Z,9.07
2018-05-07T18:35:08.929Z,8.10
2018-05-07T18:37:35.736Z,7.30
2018-05-07T18:40:02.564Z,9.53
2018-05-07T18:42:30.195Z,12.50
2018-05-07T18:44:57.005Z,9.47
2018-05-07T18:47:23.880Z,8.70
2018-05-07T18:49:50.748Z,9.53
2018-05-07T18:52:17.496Z,7.67
2018-05-07T18:54:45.019Z,6.77
2018-05-07T18:57:11.851Z,8.43
2018-05-07T18:59:38.782Z,8.30
2018-05-07T19:02:05.637Z,8.70
2018-05-07T19:04:32.478Z,10.10
2018-05-07T19:06:59.408Z,12.93
2018-05-07T19:09:26.206Z,12.00
2018-05-07T19:11:53.149Z,10.00
2018-05-07T19:17:20.734Z,11.83
2018-05-07T19:19:47.640Z,11.30
2018-05-07T19:22:15.157Z,9.13
2018-05-07T19:24:41.985Z,9.57
2018-05-07T19:27:08.831Z,7.67
2018-05-07T19:29:35.868Z,9.03
2018-05-07T19:32:02.732Z,8.80
2018-05-07T19:34:29.559Z,8.17
2018-05-07T19:36:57.380Z,10.20
2018-05-07T19:39:24.390Z,9.47
2018-05-07T19:41:51.948Z,8.27
2018-05-07T19:44:18.783Z,7.77
2018-05-07T19:46:46.043Z,7.17
2018-05-07T19:49:13.089Z,8.73
2018-05-07T19:51:39.913Z,7.17
2018-05-07T19:54:06.888Z,7.27
2018-05-07T19:56:33.743Z,8.07
2018-05-07T19:59:00.775Z,10.47
2018-05-07T20:01:27.729Z,7.83
2018-05-07T20:03:54.683Z,8.23
2018-05-07T20:06:21.494Z,7.67
2018-05-07T20:08:48.572Z,6.47
2018-05-07T20:11:15.614Z,7.13
2018-05-07T20:13:42.570Z,8.47
2018-05-07T20:19:15.060Z,6.60
2018-05-07T20:21:42.107Z,5.87
2018-05-07T20:24:09.075Z,6.63
2018-05-07T20:29:43.612Z,6.80
2018-05-07T20:32:10.460Z,7.97
2018-05-07T20:34:37.265Z,8.83
2018-05-07T20:37:04.164Z,9.07
2018-05-07T20:39:31.008Z,7.23
2018-05-07T20:41:57.804Z,9.03
2018-05-07T20:44:24.684Z,9.30
2018-05-07T20:46:51.574Z,9.63
2018-05-07T20:49:19.172Z,9.17
2018-05-07T20:51:46.078Z,8.03
2018-05-07T20:54:13.682Z,7.87
2018-05-07T20:56:40.573Z,7.37
2018-05-07T20:59:08.234Z,6.97
2018-05-07T21:01:35.823Z,8.60
2018-05-07T21:04:02.634Z,10.70
2018-05-07T21:06:29.480Z,7.27
2018-05-07T21:08:57.125Z,7.97
2018-05-07T21:11:24.012Z,6.83
2018-05-07T21:13:51.581Z,6.73
2018-05-07T21:19:27.026Z,6.83
2018-05-07T21:21:54.660Z,7.20
2018-05-07T21:24:21.575Z,7.37
2018-05-07T21:26:49.122Z,7.50
2018-05-07T21:29:18.748Z,6.43
2018-05-07T21:31:45.607Z,6.33
2018-05-07T21:34:12.538Z,6.30
2018-05-07T21:36:39.369Z,7.83
2018-05-07T21:39:06.307Z,7.87
2018-05-07T21:41:33.874Z,6.67
2018-05-07T21:44:00.715Z,7.77
2018-05-07T21:46:28.267Z,6.37
2018-05-07T21:48:55.906Z,6.43
2018-05-07T21:51:22.689Z,5.93
2018-05-07T21:53:49.507Z,8.23
2018-05-07T21:56:17.045Z,9.80
2018-05-07T21:58:43.865Z,6.53
2018-05-07T22:01:11.004Z,7.27
2018-05-07T22:03:38.348Z,6.53
2018-05-07T22:06:05.881Z,7.20
2018-05-07T22:08:38.502Z,9.37
2018-05-07T22:11:06.301Z,7.10
2018-05-07T22:13:33.096Z,8.17
2018-05-07T22:15:59.868Z,6.60
2018-05-07T22:18:26.795Z,5.70
2018-05-07T22:20:53.657Z,5.40
2018-05-07T22:23:21.094Z,8.33
2018-05-07T22:25:48.133Z,8.30
2018-05-07T22:28:15.146Z,7.67
2018-05-07T22:30:42.398Z,5.53
2018-05-07T22:33:09.315Z,9.13
2018-05-07T22:35:36.155Z,6.97
2018-05-07T22:38:03.002Z,6.57
2018-05-07T22:40:30.057Z,6.17
2018-05-07T22:42:56.961Z,11.50
2018-05-07T22:45:24.665Z,7.40
2018-05-07T22:47:51.552Z,7.10
2018-05-07T22:50:18.448Z,6.93
2018-05-07T22:52:45.330Z,6.37
2018-05-07T22:55:19.340Z,8.27
2018-05-07T22:57:46.137Z,6.60
2018-05-07T23:00:26.106Z,7.70
2018-05-07T23:03:15.305Z,6.93
2018-05-07T23:05:56.432Z,7.07
2018-05-07T23:08:23.294Z,6.43
2018-05-07T23:10:50.821Z,9.77
2018-05-07T23:13:18.292Z,11.00
2018-05-07T23:15:53.955Z,7.07
2018-05-07T23:18:20.803Z,8.00
2018-05-07T23:20:47.822Z,6.37
2018-05-07T23:23:15.320Z,10.87
2018-05-07T23:25:42.049Z,7.20
2018-05-07T23:28:08.888Z,7.33
2018-05-07T23:30:36.683Z,8.17
2018-05-07T23:33:03.505Z,7.23
2018-05-07T23:35:31.045Z,7.10
2018-05-07T23:37:58.597Z,9.50
2018-05-07T23:40:26.183Z,7.13
2018-05-07T23:42:52.976Z,11.10
2018-05-07T23:45:21.763Z,7.70
2018-05-07T23:47:48.583Z,7.67
2018-05-07T23:50:15.438Z,10.97
2018-05-07T23:52:42.926Z,8.40
2018-05-07T23:55:09.785Z,7.03
2018-05-07T23:57:36.667Z,9.20
